createdAt,value
2022-09-14T00:02:13.468Z,12.38
2022-09-14T00:04:41.954Z,12.25
2022-09-14T00:07:09.162Z,12.33
2022-09-14T00:09:35.659Z,12.29
2022-09-14T00:12:02.307Z,12.36
2022-09-14T00:14:28.768Z,12.43
2022-09-14T00:16:55.281Z,12.35
2022-09-14T00:19:26.476Z,12.28
2022-09-14T00:21:55.474Z,12.23
2022-09-14T00:24:23.213Z,12.14
2022-09-14T00:26:49.880Z,12.09
2022-09-14T00:29:16.772Z,12.09
2022-09-14T00:31:43.357Z,12.00
2022-09-14T00:34:14.294Z,11.92
2022-09-14T00:36:47.221Z,11.94
2022-09-14T00:39:14.800Z,11.91
2022-09-14T00:41:44.173Z,11.82
2022-09-14T00:44:10.499Z,11.96
2022-09-14T00:46:47.820Z,12.01
2022-09-14T00:49:20.636Z,11.89
2022-09-14T00:51:52.940Z,11.83
2022-09-14T00:54:19.951Z,11.70
2022-09-14T00:56:48.068Z,11.85
2022-09-14T00:59:19.800Z,11.93
2022-09-14T01:01:47.213Z,11.85
2022-09-14T01:04:14.240Z,11.77
2022-09-14T01:06:49.853Z,11.72
2022-09-14T01:09:32.564Z,11.79
2022-09-14T01:12:11.103Z,11.71
2022-09-14T01:14:47.131Z,11.78
2022-09-14T01:17:34.994Z,11.69
2022-09-14T01:20:19.792Z,11.84
2022-09-14T01:23:37.196Z,11.72
2022-09-14T01:26:17.780Z,11.71
2022-09-14T01:28:56.393Z,11.75
2022-09-14T01:31:39.772Z,11.66
2022-09-14T01:34:19.635Z,11.65
2022-09-14T01:36:51.759Z,11.37
2022-09-14T01:39:21.627Z,11.44
2022-09-14T01:41:50.208Z,11.59
2022-09-14T01:44:22.315Z,11.60
2022-09-14T01:46:54.585Z,11.69
2022-09-14T01:49:32.131Z,11.76
2022-09-14T01:52:06.632Z,11.71
2022-09-14T01:54:49.055Z,11.42
2022-09-14T01:57:27.025Z,11.55
2022-09-14T01:59:58.348Z,11.60
2022-09-14T02:02:35.010Z,11.58
2022-09-14T02:05:08.323Z,11.51
2022-09-14T02:07:36.634Z,11.53
2022-09-14T02:10:07.039Z,11.60
2022-09-14T02:12:33.444Z,11.57
2022-09-14T02:15:00.078Z,11.48
2022-09-14T02:17:26.468Z,11.38
2022-09-14T02:19:56.750Z,11.39
2022-09-14T02:22:24.984Z,11.63
2022-09-14T02:24:52.206Z,11.67
2022-09-14T02:27:18.571Z,11.69
2022-09-14T02:29:45.251Z,11.74
2022-09-14T02:32:30.625Z,11.91
2022-09-14T02:35:16.935Z,11.81
2022-09-14T02:37:49.552Z,11.78
2022-09-14T02:40:31.159Z,11.77
2022-09-14T02:43:14.050Z,11.87
2022-09-14T02:46:05.844Z,11.94
2022-09-14T02:48:52.197Z,11.79
2022-09-14T02:51:33.434Z,11.89
2022-09-14T02:54:06.033Z,12.10
2022-09-14T02:56:34.517Z,12.02
2022-09-14T02:59:00.895Z,12.05
2022-09-14T03:01:27.975Z,12.05
2022-09-14T03:03:54.635Z,12.10
2022-09-14T03:06:21.064Z,12.10
2022-09-14T03:08:47.883Z,12.34
2022-09-14T03:11:14.351Z,12.32
2022-09-14T03:13:40.966Z,12.26
2022-09-14T03:16:12.800Z,12.28
2022-09-14T03:18:39.806Z,12.36
2022-09-14T03:21:11.402Z,12.44
2022-09-14T03:23:39.625Z,12.42
2022-09-14T03:26:36.603Z,12.42
2022-09-14T03:29:04.056Z,12.49
2022-09-14T03:31:31.542Z,12.38
2022-09-14T03:34:00.846Z,12.52
2022-09-14T03:36:29.510Z,12.53
2022-09-14T03:38:57.835Z,12.58
2022-09-14T03:41:24.874Z,12.59
2022-09-14T03:43:51.583Z,12.47
2022-09-14T03:46:21.316Z,12.65
2022-09-14T03:48:48.796Z,12.50
2022-09-14T03:51:16.007Z,12.59
2022-09-14T03:53:44.358Z,12.69
2022-09-14T03:56:19.201Z,12.64
2022-09-14T03:58:47.001Z,12.68
2022-09-14T04:01:17.227Z,12.75
2022-09-14T04:03:44.469Z,12.81
2022-09-14T04:06:11.424Z,12.66
2022-09-14T04:08:40.614Z,12.77
2022-09-14T04:11:28.879Z,12.83
2022-09-14T04:13:55.211Z,12.77
2022-09-14T04:16:22.223Z,12.83
2022-09-14T04:18:48.896Z,12.86
2022-09-14T04:21:21.567Z,12.97
2022-09-14T04:24:13.372Z,12.88
2022-09-14T04:26:35.164Z,12.92
2022-09-14T04:29:01.546Z,13.07
2022-09-14T04:31:28.660Z,12.99
2022-09-14T04:33:56.229Z,12.93
2022-09-14T04:36:28.106Z,12.90
2022-09-14T04:38:57.035Z,12.98
2022-09-14T04:41:24.175Z,12.93
2022-09-14T04:43:52.314Z,12.82
2022-09-14T04:46:27.518Z,12.92
2022-09-14T04:48:54.579Z,12.97
2022-09-14T04:51:23.904Z,12.90
2022-09-14T04:53:52.590Z,13.02
2022-09-14T04:56:22.378Z,13.07
2022-09-14T04:58:52.017Z,13.11
2022-09-14T05:01:24.758Z,13.16
2022-09-14T05:03:52.503Z,13.22
2022-09-14T05:06:22.492Z,13.16
2022-09-14T05:08:50.064Z,13.07
2022-09-14T05:11:19.518Z,13.16
2022-09-14T05:13:49.702Z,13.19
2022-09-14T05:16:21.506Z,13.23
2022-09-14T05:18:49.370Z,13.11
2022-09-14T05:21:18.759Z,13.19
2022-09-14T05:23:46.311Z,13.29
2022-09-14T05:26:13.498Z,13.29
2022-09-14T05:28:40.549Z,13.40
2022-09-14T05:31:09.272Z,13.40
2022-09-14T05:33:36.300Z,13.30
2022-09-14T05:36:05.911Z,13.24
2022-09-14T05:38:34.295Z,13.15
2022-09-14T05:41:01.386Z,13.19
2022-09-14T05:43:29.291Z,13.42
2022-09-14T05:45:55.912Z,13.53
2022-09-14T05:48:22.308Z,13.44
2022-09-14T05:50:48.668Z,13.46
2022-09-14T05:53:15.036Z,13.53
2022-09-14T05:55:41.458Z,13.54
2022-09-14T05:58:07.801Z,13.65
2022-09-14T06:00:34.168Z,13.73
2022-09-14T06:03:00.601Z,13.67
2022-09-14T06:05:28.174Z,13.57
2022-09-14T06:07:54.948Z,13.59
2022-09-14T06:10:21.757Z,13.73
2022-09-14T06:12:51.271Z,13.78
2022-09-14T06:15:21.231Z,13.72
2022-09-14T06:17:47.684Z,13.81
2022-09-14T06:20:14.871Z,13.94
2022-09-14T06:22:41.266Z,13.93
2022-09-14T06:25:08.042Z,13.99
2022-09-14T06:27:34.389Z,14.11
2022-09-14T06:30:00.822Z,14.18
2022-09-14T06:32:30.339Z,14.25
2022-09-14T06:34:56.791Z,14.26
2022-09-14T06:37:23.544Z,14.22
2022-09-14T06:39:49.967Z,14.41
2022-09-14T06:42:16.347Z,14.65
2022-09-14T06:44:42.736Z,14.70
2022-09-14T06:47:09.204Z,14.58
2022-09-14T06:49:35.565Z,14.80
2022-09-14T06:52:02.127Z,14.83
2022-09-14T06:54:28.613Z,15.14
2022-09-14T06:56:54.978Z,15.54
2022-09-14T06:59:22.591Z,15.47
2022-09-14T07:01:51.945Z,15.41
2022-09-14T07:04:18.535Z,15.25
2022-09-14T07:06:49.703Z,15.37
2022-09-14T07:09:17.787Z,15.67
2022-09-14T07:11:45.506Z,15.62
2022-09-14T07:14:12.583Z,15.65
2022-09-14T07:16:40.320Z,15.70
2022-09-14T07:19:10.117Z,16.11
2022-09-14T07:21:36.772Z,16.03
2022-09-14T07:24:03.712Z,16.07
2022-09-14T07:26:39.473Z,16.05
2022-09-14T07:29:12.114Z,16.29
2022-09-14T07:31:50.135Z,16.24
2022-09-14T07:34:17.271Z,16.71
2022-09-14T07:36:43.997Z,16.93
2022-09-14T07:39:13.460Z,17.54
2022-09-14T07:41:40.155Z,17.81
2022-09-14T07:44:07.956Z,18.17
2022-09-14T07:46:39.473Z,18.28
2022-09-14T07:49:07.236Z,18.08
2022-09-14T07:51:35.004Z,18.28
2022-09-14T07:54:01.718Z,17.86
2022-09-14T07:56:29.378Z,18.14
2022-09-14T07:59:11.380Z,17.75
2022-09-14T08:01:44.236Z,17.60
2022-09-14T08:04:11.047Z,17.53
2022-09-14T08:06:37.610Z,17.56
2022-09-14T08:09:08.394Z,17.76
2022-09-14T08:11:35.282Z,17.67
2022-09-14T08:14:05.123Z,17.44
2022-09-14T08:16:34.561Z,17.25
2022-09-14T08:19:04.496Z,17.35
2022-09-14T08:21:32.659Z,17.24
2022-09-14T08:24:02.340Z,17.35
2022-09-14T08:26:29.540Z,17.33
2022-09-14T08:28:56.831Z,17.38
2022-09-14T08:31:25.351Z,17.39
2022-09-14T08:33:54.799Z,17.43
2022-09-14T08:36:23.252Z,17.52
2022-09-14T08:38:50.160Z,17.51
2022-09-14T08:41:38.503Z,17.99
2022-09-14T08:44:20.917Z,18.45
2022-09-14T08:46:51.432Z,18.41
2022-09-14T08:49:36.063Z,18.59
2022-09-14T08:52:02.734Z,18.61
2022-09-14T08:54:29.464Z,18.40
2022-09-14T08:57:07.455Z,18.59
2022-09-14T09:00:13.710Z,18.39
2022-09-14T09:03:17.936Z,18.39
2022-09-14T09:06:02.796Z,18.49
2022-09-14T09:08:54.155Z,18.54
2022-09-14T09:11:24.910Z,18.62
2022-09-14T09:13:52.938Z,18.72
2022-09-14T09:16:23.013Z,18.59
2022-09-14T09:18:57.066Z,19.05
2022-09-14T09:21:35.455Z,19.08
2022-09-14T09:24:18.521Z,19.01
2022-09-14T09:26:44.920Z,19.96
2022-09-14T09:29:12.002Z,19.90
2022-09-14T09:31:44.144Z,19.80
2022-09-14T09:34:14.618Z,20.75
2022-09-14T09:36:45.054Z,21.30
2022-09-14T09:39:12.215Z,21.04
2022-09-14T09:41:56.379Z,20.91
2022-09-14T09:44:22.742Z,21.82
2022-09-14T09:46:58.506Z,21.64
2022-09-14T09:49:31.485Z,20.94
2022-09-14T09:52:16.894Z,20.39
2022-09-14T09:54:50.913Z,19.88
2022-09-14T09:57:36.451Z,19.62
2022-09-14T10:00:24.262Z,19.78
2022-09-14T10:02:51.806Z,19.70
2022-09-14T10:05:18.086Z,19.67
2022-09-14T10:07:50.364Z,19.54
2022-09-14T10:10:20.362Z,20.04
2022-09-14T10:12:52.842Z,20.67
2022-09-14T10:15:29.170Z,21.52
2022-09-14T10:17:56.890Z,21.60
2022-09-14T10:20:25.383Z,21.79
2022-09-14T10:22:52.599Z,21.61
2022-09-14T10:25:19.135Z,21.76
2022-09-14T10:27:48.468Z,20.90
2022-09-14T10:30:19.263Z,20.88
2022-09-14T10:33:08.617Z,21.25
2022-09-14T10:35:47.307Z,21.54
2022-09-14T10:38:32.599Z,20.84
2022-09-14T10:41:23.523Z,20.83
2022-09-14T10:44:19.299Z,21.23
2022-09-14T10:47:00.280Z,20.79
2022-09-14T10:49:51.740Z,20.63
2022-09-14T10:52:37.030Z,20.87
2022-09-14T10:55:31.893Z,20.32
2022-09-14T10:58:21.234Z,20.75
2022-09-14T11:01:11.871Z,20.27
2022-09-14T11:03:53.415Z,20.78
2022-09-14T11:06:22.724Z,21.86
2022-09-14T11:09:00.633Z,22.40
2022-09-14T11:11:33.466Z,22.98
2022-09-14T11:14:51.607Z,22.24
2022-09-14T11:17:47.362Z,22.45
2022-09-14T11:20:32.281Z,22.12
2022-09-14T11:23:28.115Z,22.67
2022-09-14T11:26:08.009Z,23.24
2022-09-14T11:28:41.378Z,23.50
2022-09-14T11:31:18.992Z,23.99
2022-09-14T11:33:51.108Z,23.92
2022-09-14T11:36:23.972Z,23.67
2022-09-14T11:38:57.639Z,22.63
2022-09-14T11:41:31.072Z,21.75
2022-09-14T11:44:18.880Z,21.89
2022-09-14T11:47:20.149Z,21.82
2022-09-14T11:49:52.207Z,21.21
2022-09-14T11:52:21.199Z,20.85
2022-09-14T11:54:49.769Z,20.80
2022-09-14T11:57:18.632Z,20.81
2022-09-14T11:59:52.084Z,21.10
2022-09-14T12:02:27.582Z,21.18
2022-09-14T12:05:10.235Z,21.36
2022-09-14T12:07:39.569Z,22.14
2022-09-14T12:10:18.047Z,21.71
2022-09-14T12:12:53.428Z,21.51
2022-09-14T12:15:28.896Z,21.22
2022-09-14T12:18:02.026Z,21.51
2022-09-14T12:20:31.627Z,22.51
2022-09-14T12:23:32.520Z,21.50
2022-09-14T12:26:11.084Z,21.67
2022-09-14T12:28:40.107Z,21.54
2022-09-14T12:31:14.227Z,20.99
2022-09-14T12:33:42.986Z,21.47
2022-09-14T12:36:32.350Z,21.43
2022-09-14T12:38:58.909Z,21.60
2022-09-14T12:41:25.273Z,21.78
2022-09-14T12:43:51.652Z,21.96
2022-09-14T12:46:20.894Z,21.85
2022-09-14T12:48:47.524Z,21.94
2022-09-14T12:51:29.084Z,22.02
2022-09-14T12:53:58.582Z,22.78
2022-09-14T12:56:48.809Z,22.24
2022-09-14T12:59:18.019Z,21.59
2022-09-14T13:01:52.270Z,21.82
2022-09-14T13:04:37.267Z,21.53
2022-09-14T13:07:17.773Z,22.03
2022-09-14T13:09:55.450Z,22.08
2022-09-14T13:12:29.738Z,22.29
2022-09-14T13:15:00.445Z,21.76
2022-09-14T13:17:26.793Z,21.90
2022-09-14T13:19:56.013Z,21.55
2022-09-14T13:22:27.535Z,21.83
2022-09-14T13:24:53.963Z,21.45
2022-09-14T13:27:29.232Z,21.50
2022-09-14T13:30:04.679Z,21.46
2022-09-14T13:32:31.742Z,21.29
2022-09-14T13:34:58.196Z,21.46
2022-09-14T13:37:25.368Z,21.61
2022-09-14T13:39:55.475Z,21.50
2022-09-14T13:42:22.541Z,21.25
2022-09-14T13:44:50.049Z,21.19
2022-09-14T13:47:19.910Z,21.06
2022-09-14T13:49:47.804Z,21.39
2022-09-14T13:52:43.612Z,21.47
2022-09-14T13:55:28.226Z,21.59
2022-09-14T13:58:09.729Z,21.43
2022-09-14T14:01:05.647Z,21.13
2022-09-14T14:03:40.604Z,21.14
2022-09-14T14:06:37.862Z,20.93
2022-09-14T14:09:07.549Z,21.08
2022-09-14T14:11:51.802Z,20.75
2022-09-14T14:14:22.282Z,20.68
2022-09-14T14:17:21.445Z,20.80
2022-09-14T14:19:49.902Z,20.72
2022-09-14T14:22:16.221Z,21.33
2022-09-14T14:25:11.794Z,21.09
2022-09-14T14:27:33.681Z,20.89
2022-09-14T14:30:01.943Z,20.87
2022-09-14T14:32:29.239Z,20.69
2022-09-14T14:34:56.073Z,20.89
2022-09-14T14:37:22.692Z,20.70
2022-09-14T14:39:49.860Z,20.45
2022-09-14T14:42:17.443Z,20.90
2022-09-14T14:44:44.987Z,20.51
2022-09-14T14:47:14.059Z,20.41
2022-09-14T14:49:40.594Z,20.79
2022-09-14T14:52:07.077Z,21.06
2022-09-14T14:54:33.427Z,20.23
2022-09-14T14:56:59.806Z,20.44
2022-09-14T14:59:28.465Z,20.65
2022-09-14T15:01:56.522Z,20.69
2022-09-14T15:04:23.174Z,20.58
2022-09-14T15:06:50.103Z,20.61
2022-09-14T15:09:22.730Z,20.80
2022-09-14T15:11:50.400Z,20.93
2022-09-14T15:14:20.214Z,21.00
2022-09-14T15:16:49.082Z,20.93
2022-09-14T15:19:15.846Z,20.95
2022-09-14T15:21:43.184Z,20.66
2022-09-14T15:24:10.959Z,20.52
2022-09-14T15:26:37.764Z,20.23
2022-09-14T15:29:04.914Z,20.40
2022-09-14T15:31:31.781Z,20.03
2022-09-14T15:33:59.520Z,20.03
2022-09-14T15:36:39.733Z,19.91
2022-09-14T15:39:07.979Z,19.71
2022-09-14T15:41:34.397Z,19.69
2022-09-14T15:44:01.065Z,19.69
2022-09-14T15:46:27.423Z,19.83
2022-09-14T15:48:53.773Z,19.70
2022-09-14T15:51:20.188Z,19.50
2022-09-14T15:53:47.742Z,19.36
2022-09-14T15:56:15.924Z,19.54
2022-09-14T15:58:47.262Z,19.42
2022-09-14T16:01:16.350Z,19.47
2022-09-14T16:03:43.048Z,19.25
2022-09-14T16:06:13.764Z,19.38
2022-09-14T16:08:40.896Z,19.18
2022-09-14T16:11:08.836Z,19.24
2022-09-14T16:13:36.258Z,19.19
2022-09-14T16:16:11.049Z,19.15
2022-09-14T16:18:38.637Z,19.19
2022-09-14T16:21:38.581Z,19.07
2022-09-14T16:24:08.456Z,18.92
2022-09-14T16:26:36.631Z,18.93
2022-09-14T16:29:05.129Z,19.08
2022-09-14T16:31:34.327Z,18.75
2022-09-14T16:34:04.439Z,18.79
2022-09-14T16:36:34.628Z,18.59
2022-09-14T16:39:03.248Z,18.49
2022-09-14T16:41:30.645Z,18.36
2022-09-14T16:43:58.705Z,18.37
2022-09-14T16:46:26.901Z,18.32
2022-09-14T16:48:53.772Z,18.25
2022-09-14T16:51:22.863Z,18.28
2022-09-14T16:53:50.871Z,18.23
2022-09-14T16:56:26.052Z,18.15
2022-09-14T16:58:54.107Z,18.11
2022-09-14T17:01:26.212Z,18.05
2022-09-14T17:03:54.277Z,17.94
2022-09-14T17:06:31.771Z,17.92
2022-09-14T17:09:04.376Z,17.78
2022-09-14T17:11:32.846Z,17.72
2022-09-14T17:13:59.566Z,17.64
2022-09-14T17:16:27.707Z,17.65
2022-09-14T17:18:57.688Z,17.51
2022-09-14T17:21:26.645Z,17.43
2022-09-14T17:23:53.856Z,17.16
2022-09-14T17:26:21.994Z,17.07
2022-09-14T17:28:49.973Z,17.18
2022-09-14T17:31:20.015Z,17.02
2022-09-14T17:33:47.353Z,17.16
2022-09-14T17:36:15.431Z,17.02
2022-09-14T17:38:43.048Z,17.09
2022-09-14T17:41:12.479Z,17.02
2022-09-14T17:43:39.902Z,16.91
2022-09-14T17:46:07.664Z,16.97
2022-09-14T17:48:37.648Z,16.90
2022-09-14T17:51:17.343Z,16.79
2022-09-14T17:53:45.224Z,16.63
2022-09-14T17:56:14.403Z,16.67
2022-09-14T17:58:42.114Z,16.63
2022-09-14T18:01:16.239Z,16.57
2022-09-14T18:03:44.432Z,16.53
2022-09-14T18:06:12.594Z,16.51
2022-09-14T18:08:40.105Z,16.40
2022-09-14T18:11:14.668Z,16.34
2022-09-14T18:13:46.182Z,16.17
2022-09-14T18:16:13.823Z,16.25
2022-09-14T18:18:40.744Z,16.20
2022-09-14T18:21:08.092Z,16.12
2022-09-14T18:23:35.291Z,16.12
2022-09-14T18:26:02.896Z,15.88
2022-09-14T18:28:29.741Z,15.78
2022-09-14T18:31:07.922Z,15.78
2022-09-14T18:33:35.225Z,15.71
2022-09-14T18:36:02.274Z,15.52
2022-09-14T18:38:29.957Z,15.37
2022-09-14T18:41:03.393Z,15.30
2022-09-14T18:43:29.815Z,15.27
2022-09-14T18:45:56.197Z,15.15
2022-09-14T18:48:22.600Z,14.97
2022-09-14T18:50:48.915Z,14.90
2022-09-14T18:53:15.274Z,14.70
2022-09-14T18:55:41.632Z,14.69
2022-09-14T18:58:08.203Z,14.46
2022-09-14T19:00:34.691Z,14.46
2022-09-14T19:03:01.085Z,14.38
2022-09-14T19:05:27.771Z,14.34
2022-09-14T19:07:54.145Z,14.19
2022-09-14T19:10:20.622Z,14.31
2022-09-14T19:12:47.286Z,14.39
2022-09-14T19:15:13.656Z,14.28
2022-09-14T19:17:40.015Z,14.18
2022-09-14T19:20:07.911Z,14.03
2022-09-14T19:22:34.699Z,13.98
2022-09-14T19:25:01.049Z,14.02
2022-09-14T19:27:27.523Z,13.93
2022-09-14T19:29:54.027Z,13.88
2022-09-14T19:32:20.427Z,13.85
2022-09-14T19:34:46.822Z,13.94
2022-09-14T19:37:13.193Z,13.88
2022-09-14T19:39:39.526Z,13.91
2022-09-14T19:42:05.945Z,14.08
2022-09-14T19:44:32.477Z,13.81
2022-09-14T19:46:58.820Z,13.89
2022-09-14T19:49:25.925Z,13.87
2022-09-14T19:51:52.840Z,13.73
2022-09-14T19:54:19.617Z,13.63
2022-09-14T19:56:46.550Z,13.40
2022-09-14T19:59:13.086Z,13.38
2022-09-14T20:01:40.199Z,13.44
2022-09-14T20:04:07.938Z,13.32
2022-09-14T20:06:42.103Z,13.17
2022-09-14T20:09:14.432Z,13.12
2022-09-14T20:11:42.869Z,13.14
2022-09-14T20:14:12.161Z,13.13
2022-09-14T20:16:41.923Z,12.99
2022-09-14T20:19:16.799Z,12.95
2022-09-14T20:21:44.697Z,12.92
2022-09-14T20:24:18.276Z,13.02
2022-09-14T20:26:49.632Z,12.97
2022-09-14T20:29:17.587Z,12.81
2022-09-14T20:31:44.328Z,12.76
2022-09-14T20:34:11.610Z,12.64
2022-09-14T20:36:38.074Z,12.61
2022-09-14T20:39:05.086Z,12.47
2022-09-14T20:41:34.154Z,12.34
2022-09-14T20:44:01.042Z,12.42
2022-09-14T20:46:31.777Z,12.46
2022-09-14T20:48:58.646Z,12.54
2022-09-14T20:51:26.495Z,12.36
2022-09-14T20:53:53.512Z,12.36
2022-09-14T20:56:21.715Z,12.26
2022-09-14T20:58:49.298Z,12.20
2022-09-14T21:01:17.777Z,12.19
2022-09-14T21:03:45.740Z,12.14
2022-09-14T21:06:18.708Z,12.18
2022-09-14T21:08:45.973Z,12.24
2022-09-14T21:11:18.689Z,12.24
2022-09-14T21:13:45.628Z,12.20
2022-09-14T21:16:14.946Z,12.08
2022-09-14T21:18:42.309Z,12.15
2022-09-14T21:21:11.280Z,12.13
2022-09-14T21:23:37.908Z,12.04
2022-09-14T21:26:06.898Z,12.12
2022-09-14T21:28:37.740Z,12.00
2022-09-14T21:31:08.304Z,12.02
2022-09-14T21:33:36.875Z,12.02
2022-09-14T21:36:07.892Z,11.87
2022-09-14T21:38:35.221Z,11.90
2022-09-14T21:41:02.597Z,11.86
2022-09-14T21:43:29.044Z,11.90
2022-09-14T21:45:58.497Z,11.94
2022-09-14T21:48:25.357Z,12.04
2022-09-14T21:51:05.216Z,11.96
2022-09-14T21:53:32.070Z,11.90
2022-09-14T21:55:58.727Z,11.93
2022-09-14T21:58:25.703Z,11.91
2022-09-14T22:00:57.221Z,11.87
2022-09-14T22:03:24.137Z,11.84
2022-09-14T22:06:01.439Z,11.97
2022-09-14T22:08:31.047Z,12.05
2022-09-14T22:11:10.782Z,11.88
2022-09-14T22:13:37.307Z,11.89
2022-09-14T22:16:16.422Z,11.97
2022-09-14T22:18:49.458Z,11.89
2022-09-14T22:21:17.235Z,11.94
2022-09-14T22:23:47.939Z,11.70
2022-09-14T22:26:14.273Z,11.80
2022-09-14T22:28:40.783Z,11.83
2022-09-14T22:31:08.846Z,11.81
2022-09-14T22:33:35.569Z,11.73
2022-09-14T22:36:03.808Z,11.59
2022-09-14T22:38:33.545Z,11.56
2022-09-14T22:41:03.115Z,11.62
2022-09-14T22:43:30.516Z,11.63
2022-09-14T22:45:57.727Z,11.61
2022-09-14T22:48:24.363Z,11.31
2022-09-14T22:50:52.555Z,11.64
2022-09-14T22:53:20.236Z,11.49
2022-09-14T22:55:46.699Z,11.70
2022-09-14T22:58:15.652Z,11.68
2022-09-14T23:00:42.778Z,11.64
2022-09-14T23:03:10.463Z,11.70
2022-09-14T23:05:38.386Z,11.53
2022-09-14T23:08:06.585Z,11.48
2022-09-14T23:10:36.556Z,11.35
2022-09-14T23:13:03.102Z,11.39
2022-09-14T23:15:29.436Z,11.35
2022-09-14T23:17:55.760Z,11.32
2022-09-14T23:20:22.208Z,11.44
2022-09-14T23:22:48.553Z,11.61
2022-09-14T23:25:14.961Z,11.85
2022-09-14T23:27:41.429Z,11.69
2022-09-14T23:30:08.427Z,11.66
2022-09-14T23:32:34.785Z,11.72
2022-09-14T23:35:01.182Z,11.72
2022-09-14T23:37:27.533Z,11.86
2022-09-14T23:39:53.974Z,12.00
2022-09-14T23:42:20.400Z,12.18
2022-09-14T23:44:46.781Z,12.07
2022-09-14T23:47:13.131Z,12.03
2022-09-14T23:49:39.479Z,12.20
2022-09-14T23:52:05.829Z,12.34
2022-09-14T23:54:32.162Z,12.31
2022-09-14T23:56:58.580Z,12.44
2022-09-14T23:59:24.945Z,12.52
